createdAt,value
2022-12-16T00:04:10.931Z,3.86
2022-12-16T00:09:08.875Z,3.53
2022-12-16T00:14:06.755Z,3.46
2022-12-16T00:19:04.646Z,3.03
2022-12-16T00:24:03.881Z,2.95
2022-12-16T00:29:01.683Z,3.33
2022-12-16T00:34:00.302Z,3.54
2022-12-16T00:38:58.100Z,3.55
2022-12-16T00:43:57.462Z,3.56
2022-12-16T00:48:55.523Z,3.65
2022-12-16T00:53:53.407Z,3.80
2022-12-16T00:58:52.369Z,3.94
2022-12-16T01:03:51.701Z,3.67
2022-12-16T01:08:49.756Z,3.43
2022-12-16T01:13:48.031Z,3.48
2022-12-16T01:18:46.026Z,3.27
2022-12-16T01:23:45.820Z,3.69
2022-12-16T01:28:43.672Z,3.16
2022-12-16T01:33:41.512Z,3.07
2022-12-16T01:38:40.220Z,2.93
2022-12-16T01:43:40.329Z,3.17
2022-12-16T01:48:45.464Z,3.20
2022-12-16T01:53:44.202Z,3.26
2022-12-16T01:58:43.996Z,3.29
2022-12-16T02:03:43.572Z,3.04
2022-12-16T02:08:41.699Z,3.29
2022-12-16T02:13:49.430Z,3.23
2022-12-16T02:18:54.211Z,3.24
2022-12-16T02:24:06.270Z,3.37
2022-12-16T02:29:16.806Z,3.09
2022-12-16T02:34:20.992Z,3.28
2022-12-16T02:39:22.561Z,3.41
2022-12-16T02:44:21.138Z,3.32
2022-12-16T02:49:33.791Z,3.31
2022-12-16T02:54:32.936Z,3.20
2022-12-16T02:59:34.341Z,3.26
2022-12-16T03:04:36.485Z,3.03
2022-12-16T03:09:37.964Z,3.21
2022-12-16T03:14:37.058Z,2.95
2022-12-16T03:19:35.806Z,3.10
2022-12-16T03:24:35.480Z,3.43
2022-12-16T03:29:37.640Z,3.43
2022-12-16T03:34:41.626Z,3.51
2022-12-16T03:39:42.957Z,3.55
2022-12-16T03:44:41.794Z,3.30
2022-12-16T03:49:39.815Z,3.11
2022-12-16T03:54:37.597Z,3.51
2022-12-16T03:59:36.765Z,3.32
2022-12-16T04:04:34.694Z,3.28
2022-12-16T04:09:32.487Z,3.72
2022-12-16T04:14:53.247Z,3.52
2022-12-16T04:20:10.615Z,3.48
2022-12-16T04:25:10.323Z,3.46
2022-12-16T04:30:20.694Z,3.30
2022-12-16T04:35:38.140Z,3.69
2022-12-16T04:40:53.263Z,3.74
2022-12-16T04:46:11.140Z,3.90
2022-12-16T04:51:28.183Z,3.28
2022-12-16T04:56:43.934Z,3.65
2022-12-16T05:01:59.766Z,3.92
2022-12-16T05:07:16.783Z,3.72
2022-12-16T05:12:32.639Z,4.29
2022-12-16T05:17:48.100Z,4.00
2022-12-16T05:23:05.063Z,3.71
2022-12-16T05:28:20.646Z,3.64
2022-12-16T05:33:36.074Z,3.62
2022-12-16T05:38:53.276Z,3.81
2022-12-16T05:44:08.874Z,3.60
2022-12-16T05:49:23.997Z,3.38
2022-12-16T05:54:41.178Z,3.60
2022-12-16T05:59:56.916Z,3.93
2022-12-16T06:05:12.750Z,3.65
2022-12-16T06:10:29.782Z,3.92
2022-12-16T06:15:44.857Z,4.04
2022-12-16T06:21:00.019Z,3.73
2022-12-16T06:26:22.490Z,3.75
2022-12-16T06:31:37.772Z,3.82
2022-12-16T06:36:53.635Z,4.00
2022-12-16T06:42:10.438Z,4.09
2022-12-16T06:47:25.607Z,4.39
2022-12-16T06:52:40.871Z,4.29
2022-12-16T06:57:53.910Z,4.95
2022-12-16T07:03:09.612Z,5.04
2022-12-16T07:08:24.861Z,5.06
2022-12-16T07:13:41.644Z,5.10
2022-12-16T07:18:57.271Z,5.04
2022-12-16T07:24:12.420Z,5.16
2022-12-16T07:29:29.574Z,4.65
2022-12-16T07:34:49.876Z,5.02
2022-12-16T07:40:05.648Z,5.61
2022-12-16T07:45:25.717Z,5.66
2022-12-16T07:50:41.040Z,5.85
2022-12-16T07:55:56.139Z,5.89
2022-12-16T08:01:13.161Z,5.88
2022-12-16T08:06:28.499Z,5.24
2022-12-16T08:11:43.870Z,5.77
2022-12-16T08:17:00.562Z,6.08
2022-12-16T08:22:15.805Z,5.97
2022-12-16T08:27:30.932Z,6.16
2022-12-16T08:32:48.066Z,6.20
2022-12-16T08:38:07.584Z,6.19
2022-12-16T08:43:27.782Z,5.83
2022-12-16T08:48:44.684Z,6.13
2022-12-16T08:53:59.776Z,6.29
2022-12-16T08:59:14.891Z,6.32
2022-12-16T09:04:27.941Z,6.32
2022-12-16T09:09:43.206Z,6.52
2022-12-16T09:14:59.115Z,6.52
2022-12-16T09:20:16.064Z,6.62
2022-12-16T09:25:31.375Z,6.71
2022-12-16T09:30:46.899Z,6.85
2022-12-16T09:36:03.950Z,7.15
2022-12-16T09:41:33.831Z,7.28
2022-12-16T09:46:55.003Z,7.21
2022-12-16T09:52:12.491Z,7.19
2022-12-16T09:57:32.295Z,7.23
2022-12-16T10:02:48.363Z,7.02
2022-12-16T10:08:13.089Z,7.17
2022-12-16T10:13:47.663Z,7.27
2022-12-16T10:19:10.071Z,7.14
2022-12-16T10:24:30.692Z,7.39
2022-12-16T10:29:47.103Z,7.37
2022-12-16T10:35:17.688Z,7.22
2022-12-16T10:40:36.575Z,7.29
2022-12-16T10:45:54.901Z,7.23
2022-12-16T10:51:10.661Z,7.27
2022-12-16T10:56:34.340Z,7.36
2022-12-16T11:01:50.374Z,7.70
2022-12-16T11:07:05.912Z,7.13
2022-12-16T11:12:33.721Z,7.36
2022-12-16T11:17:49.442Z,7.52
2022-12-16T11:23:04.650Z,7.42
2022-12-16T11:28:24.614Z,7.23
2022-12-16T11:33:42.301Z,7.49
2022-12-16T11:39:10.870Z,7.49
2022-12-16T11:44:31.882Z,7.71
2022-12-16T11:49:49.126Z,8.01
2022-12-16T11:55:10.976Z,7.57
2022-12-16T12:00:32.801Z,7.34
2022-12-16T12:05:50.423Z,7.34
2022-12-16T12:11:11.347Z,7.40
2022-12-16T12:16:32.584Z,7.27
2022-12-16T12:21:51.381Z,7.26
2022-12-16T12:27:11.461Z,7.28
2022-12-16T12:32:35.470Z,7.32
2022-12-16T12:37:53.268Z,7.26
2022-12-16T12:43:11.000Z,7.16
2022-12-16T12:48:33.633Z,6.95
2022-12-16T12:53:54.643Z,6.78
2022-12-16T12:59:14.639Z,6.97
2022-12-16T13:04:32.367Z,7.14
2022-12-16T13:09:49.611Z,7.05
2022-12-16T13:15:12.640Z,7.11
2022-12-16T13:20:53.999Z,6.76
2022-12-16T13:26:24.783Z,6.97
2022-12-16T13:31:40.519Z,7.10
2022-12-16T13:36:58.728Z,7.11
2022-12-16T13:42:18.791Z,7.24
2022-12-16T13:47:50.150Z,7.21
2022-12-16T13:53:11.058Z,7.14
2022-12-16T13:58:32.929Z,7.06
2022-12-16T14:03:57.008Z,6.96
2022-12-16T14:09:15.344Z,6.65
2022-12-16T14:14:39.196Z,6.58
2022-12-16T14:20:00.917Z,6.59
2022-12-16T14:25:27.830Z,6.50
2022-12-16T14:30:44.672Z,6.65
2022-12-16T14:36:07.568Z,6.76
2022-12-16T14:41:24.925Z,6.92
2022-12-16T14:46:46.307Z,6.55
2022-12-16T14:52:05.501Z,6.50
2022-12-16T14:57:22.811Z,6.38
2022-12-16T15:02:44.953Z,6.38
2022-12-16T15:08:01.548Z,6.39
2022-12-16T15:13:18.702Z,6.40
2022-12-16T15:18:37.710Z,6.52
2022-12-16T15:23:53.517Z,6.52
2022-12-16T15:29:10.931Z,6.61
2022-12-16T15:34:46.604Z,6.73
2022-12-16T15:40:02.233Z,6.67
2022-12-16T15:45:19.660Z,6.52
2022-12-16T15:50:37.580Z,6.63
2022-12-16T15:55:54.592Z,6.67
2022-12-16T16:01:16.828Z,6.73
2022-12-16T16:06:34.448Z,6.79
2022-12-16T16:11:49.793Z,6.72
2022-12-16T16:17:06.978Z,6.29
2022-12-16T16:22:22.499Z,6.53
2022-12-16T16:27:40.237Z,6.49
2022-12-16T16:32:57.383Z,6.62
2022-12-16T16:38:18.075Z,6.71
2022-12-16T16:43:34.805Z,6.74
2022-12-16T16:48:52.124Z,6.69
2022-12-16T16:54:12.760Z,6.33
2022-12-16T16:59:28.375Z,6.45
2022-12-16T17:04:45.508Z,6.48
2022-12-16T17:10:01.144Z,6.41
2022-12-16T17:15:18.545Z,6.49
2022-12-16T17:20:35.978Z,6.58
2022-12-16T17:25:51.555Z,6.44
2022-12-16T17:31:06.835Z,6.43
2022-12-16T17:36:27.213Z,6.39
2022-12-16T17:41:45.994Z,6.48
2022-12-16T17:47:01.281Z,6.37
2022-12-16T17:52:18.144Z,6.29
2022-12-16T17:57:33.891Z,6.41
2022-12-16T18:02:49.771Z,6.39
2022-12-16T18:08:06.895Z,6.52
2022-12-16T18:13:23.172Z,6.57
2022-12-16T18:18:41.634Z,6.65
2022-12-16T18:24:03.143Z,6.62
2022-12-16T18:29:18.855Z,6.44
2022-12-16T18:34:34.477Z,6.40
2022-12-16T18:39:51.452Z,6.43
2022-12-16T18:45:07.742Z,6.42
2022-12-16T18:50:28.569Z,6.59
2022-12-16T18:55:47.194Z,6.67
2022-12-16T19:01:02.845Z,6.62
2022-12-16T19:06:17.987Z,6.61
2022-12-16T19:11:35.096Z,6.45
2022-12-16T19:16:50.438Z,5.75
2022-12-16T19:22:05.883Z,5.70
2022-12-16T19:27:22.624Z,5.93
2022-12-16T19:32:38.460Z,5.14
2022-12-16T19:37:53.806Z,5.52
2022-12-16T19:43:10.944Z,5.81
2022-12-16T19:48:26.711Z,5.82
2022-12-16T19:53:42.060Z,5.91
2022-12-16T19:59:01.156Z,6.04
2022-12-16T20:04:16.852Z,5.94
2022-12-16T20:09:31.959Z,6.08
2022-12-16T20:14:49.008Z,6.20
2022-12-16T20:20:07.925Z,6.31
2022-12-16T20:25:24.015Z,6.16
2022-12-16T20:30:41.817Z,6.21
2022-12-16T20:35:57.067Z,6.03
2022-12-16T20:41:14.167Z,5.85
2022-12-16T20:46:31.191Z,5.88
2022-12-16T20:51:47.441Z,5.88
2022-12-16T20:57:05.864Z,5.42
2022-12-16T21:02:28.022Z,5.70
2022-12-16T21:07:48.351Z,5.61
2022-12-16T21:13:06.945Z,5.52
2022-12-16T21:18:26.467Z,5.32
2022-12-16T21:23:42.825Z,5.26
2022-12-16T21:28:58.503Z,5.34
2022-12-16T21:34:15.502Z,5.42
2022-12-16T21:39:32.296Z,5.72
2022-12-16T21:44:48.123Z,5.44
2022-12-16T21:50:05.078Z,5.25
2022-12-16T21:55:20.734Z,5.43
2022-12-16T22:00:36.751Z,5.34
2022-12-16T22:05:56.083Z,5.29
2022-12-16T22:11:14.609Z,5.20
2022-12-16T22:16:29.497Z,5.14
2022-12-16T22:21:46.466Z,4.36
2022-12-16T22:27:01.674Z,4.31
2022-12-16T22:32:17.375Z,4.17
2022-12-16T22:37:34.455Z,4.32
2022-12-16T22:42:50.414Z,4.63
2022-12-16T22:48:06.173Z,4.79
2022-12-16T22:53:23.314Z,5.04
2022-12-16T22:58:39.202Z,5.33
2022-12-16T23:03:56.421Z,5.76
2022-12-16T23:09:13.410Z,5.84
2022-12-16T23:14:28.890Z,6.19
2022-12-16T23:19:44.898Z,6.25
2022-12-16T23:25:01.849Z,5.46
2022-12-16T23:30:17.560Z,5.20
2022-12-16T23:35:32.926Z,5.27
2022-12-16T23:40:51.918Z,5.26
2022-12-16T23:46:22.193Z,5.64
2022-12-16T23:51:36.548Z,5.84
2022-12-16T23:56:53.304Z,5.96
